Saint-Prime, Canada
Current Conditions -  °F | °C
As of 5:00 PM on Monday 20 Oct 2014 (Local Time) from CYRJ Reporting Station
Broken Clouds Broken Clouds  
Wind Chill: 32°   Ceiling: 10000
Heat Index: 39°   Visibility: 40mi
Dew Point: 23°   Wind: 10mph
Humidity: 52%   Direction: 320°NW
Pressure: 29.87"   Gusts: NA
Location:  48.6°N, 72.33°W
Report Text: CYRJ 202100Z 32009KT 40SM FEW030 BKN100 04/M05 A2987 RMK SC1AC5 SLP124
Loading
Personal Weather Stations






























Interactive Weather Map
Tropical Storm Tracking
New forecast layout! Learn more

10-Day Weather Forecast

Advertisements
Track Severe Weather on mobile